sensor_id;sensor_type;location;lat;lon;timestamp;temperature;humidity
7014;DHT22;3547;50.774;12.918;2023-05-14T00:04:49;10.30;1.00
7014;DHT22;3547;50.774;12.918;2023-05-14T00:10:42;10.30;1.00
7014;DHT22;3547;50.774;12.918;2023-05-14T00:23:09;10.20;1.00
7014;DHT22;3547;50.774;12.918;2023-05-14T00:25:35;10.20;1.00
7014;DHT22;3547;50.774;12.918;2023-05-14T00:28:03;10.20;1.00
7014;DHT22;3547;50.774;12.918;2023-05-14T00:30:29;10.20;1.00
7014;DHT22;3547;50.774;12.918;2023-05-14T00:32:55;10.20;1.00
7014;DHT22;3547;50.774;12.918;2023-05-14T00:35:22;10.30;1.00
7014;DHT22;3547;50.774;12.918;2023-05-14T00:37:48;10.30;1.00
7014;DHT22;3547;50.774;12.918;2023-05-14T00:40:15;10.30;1.00
7014;DHT22;3547;50.774;12.918;2023-05-14T00:42:41;10.20;1.00
7014;DHT22;3547;50.774;12.918;2023-05-14T00:45:08;10.20;1.00
7014;DHT22;3547;50.774;12.918;2023-05-14T00:47:35;10.20;1.00
7014;DHT22;3547;50.774;12.918;2023-05-14T00:50:02;10.20;1.00
7014;DHT22;3547;50.774;12.918;2023-05-14T00:52:29;10.20;1.00
7014;DHT22;3547;50.774;12.918;2023-05-14T00:54:56;10.30;1.00
7014;DHT22;3547;50.774;12.918;2023-05-14T00:57:22;10.30;1.00
7014;DHT22;3547;50.774;12.918;2023-05-14T00:59:48;10.40;1.00
7014;DHT22;3547;50.774;12.918;2023-05-14T01:02:14;10.40;1.00
7014;DHT22;3547;50.774;12.918;2023-05-14T01:04:41;10.50;1.00
7014;DHT22;3547;50.774;12.918;2023-05-14T01:10:12;10.50;1.00
7014;DHT22;3547;50.774;12.918;2023-05-14T01:15:32;10.50;1.00
7014;DHT22;3547;50.774;12.918;2023-05-14T01:18:07;10.50;1.00
7014;DHT22;3547;50.774;12.918;2023-05-14T01:20:34;10.50;1.00
7014;DHT22;3547;50.774;12.918;2023-05-14T01:23:02;10.50;1.00
7014;DHT22;3547;50.774;12.918;2023-05-14T01:25:29;10.50;1.00
7014;DHT22;3547;50.774;12.918;2023-05-14T01:28:11;10.60;1.00
7014;DHT22;3547;50.774;12.918;2023-05-14T01:30:51;10.60;1.00
7014;DHT22;3547;50.774;12.918;2023-05-14T01:33:18;10.60;1.00
7014;DHT22;3547;50.774;12.918;2023-05-14T01:35:47;10.70;1.00
7014;DHT22;3547;50.774;12.918;2023-05-14T01:38:17;10.70;1.00
7014;DHT22;3547;50.774;12.918;2023-05-14T01:40:44;10.70;1.00
7014;DHT22;3547;50.774;12.918;2023-05-14T01:43:11;10.70;1.00
7014;DHT22;3547;50.774;12.918;2023-05-14T01:45:37;10.70;1.00
7014;DHT22;3547;50.774;12.918;2023-05-14T01:48:04;10.70;1.00
7014;DHT22;3547;50.774;12.918;2023-05-14T01:50:30;10.70;1.00
7014;DHT22;3547;50.774;12.918;2023-05-14T01:52:56;10.70;1.00
7014;DHT22;3547;50.774;12.918;2023-05-14T01:55:23;10.80;1.00
7014;DHT22;3547;50.774;12.918;2023-05-14T01:57:50;10.80;1.00
7014;DHT22;3547;50.774;12.918;2023-05-14T02:00:16;10.80;1.00
7014;DHT22;3547;50.774;12.918;2023-05-14T02:02:43;10.80;1.00
7014;DHT22;3547;50.774;12.918;2023-05-14T02:05:12;10.80;1.00
7014;DHT22;3547;50.774;12.918;2023-05-14T02:07:39;10.90;1.00
7014;DHT22;3547;50.774;12.918;2023-05-14T02:10:06;10.90;1.00
7014;DHT22;3547;50.774;12.918;2023-05-14T02:12:35;10.80;1.00
7014;DHT22;3547;50.774;12.918;2023-05-14T02:15:02;10.90;1.00
7014;DHT22;3547;50.774;12.918;2023-05-14T02:17:28;10.90;1.00
7014;DHT22;3547;50.774;12.918;2023-05-14T02:19:55;10.90;1.00
7014;DHT22;3547;50.774;12.918;2023-05-14T02:22:21;10.90;1.00
7014;DHT22;3547;50.774;12.918;2023-05-14T02:24:47;10.90;1.00
7014;DHT22;3547;50.774;12.918;2023-05-14T02:27:14;11.00;1.00
7014;DHT22;3547;50.774;12.918;2023-05-14T02:29:40;10.90;1.00
7014;DHT22;3547;50.774;12.918;2023-05-14T02:32:07;11.00;1.00
7014;DHT22;3547;50.774;12.918;2023-05-14T02:34:33;11.00;1.00
7014;DHT22;3547;50.774;12.918;2023-05-14T02:36:59;11.00;1.00
7014;DHT22;3547;50.774;12.918;2023-05-14T02:39:26;11.00;1.00
7014;DHT22;3547;50.774;12.918;2023-05-14T02:41:52;11.00;1.00
7014;DHT22;3547;50.774;12.918;2023-05-14T02:44:18;11.00;1.00
7014;DHT22;3547;50.774;12.918;2023-05-14T02:46:44;11.00;1.00
7014;DHT22;3547;50.774;12.918;2023-05-14T02:49:10;11.00;1.00
7014;DHT22;3547;50.774;12.918;2023-05-14T02:51:36;11.00;1.00
7014;DHT22;3547;50.774;12.918;2023-05-14T02:54:02;10.90;1.00
7014;DHT22;3547;50.774;12.918;2023-05-14T02:56:28;10.90;1.00
7014;DHT22;3547;50.774;12.918;2023-05-14T02:58:55;10.90;1.00
7014;DHT22;3547;50.774;12.918;2023-05-14T03:01:21;10.90;1.00
7014;DHT22;3547;50.774;12.918;2023-05-14T03:03:47;10.90;1.00
7014;DHT22;3547;50.774;12.918;2023-05-14T03:06:13;10.90;1.00
7014;DHT22;3547;50.774;12.918;2023-05-14T03:08:39;10.90;1.00
7014;DHT22;3547;50.774;12.918;2023-05-14T03:11:06;10.90;1.00
7014;DHT22;3547;50.774;12.918;2023-05-14T03:13:32;11.00;1.00
7014;DHT22;3547;50.774;12.918;2023-05-14T03:15:58;10.90;1.00
7014;DHT22;3547;50.774;12.918;2023-05-14T03:18:24;10.90;1.00
7014;DHT22;3547;50.774;12.918;2023-05-14T03:20:53;10.90;1.00
7014;DHT22;3547;50.774;12.918;2023-05-14T03:23:19;10.90;1.00
7014;DHT22;3547;50.774;12.918;2023-05-14T03:25:45;11.00;1.00
7014;DHT22;3547;50.774;12.918;2023-05-14T03:28:11;11.00;1.00
7014;DHT22;3547;50.774;12.918;2023-05-14T03:30:37;11.00;1.00
7014;DHT22;3547;50.774;12.918;2023-05-14T03:33:03;11.00;1.00
7014;DHT22;3547;50.774;12.918;2023-05-14T03:35:30;10.90;1.00
7014;DHT22;3547;50.774;12.918;2023-05-14T03:37:56;10.90;1.00
7014;DHT22;3547;50.774;12.918;2023-05-14T03:40:24;10.90;1.00
7014;DHT22;3547;50.774;12.918;2023-05-14T03:42:50;10.90;1.00
7014;DHT22;3547;50.774;12.918;2023-05-14T03:45:16;10.90;1.00
7014;DHT22;3547;50.774;12.918;2023-05-14T03:47:43;10.80;1.00
7014;DHT22;3547;50.774;12.918;2023-05-14T03:50:09;10.80;1.00
7014;DHT22;3547;50.774;12.918;2023-05-14T03:52:35;10.80;1.00
7014;DHT22;3547;50.774;12.918;2023-05-14T03:55:01;10.80;1.00
7014;DHT22;3547;50.774;12.918;2023-05-14T03:57:28;10.80;1.00
7014;DHT22;3547;50.774;12.918;2023-05-14T03:59:54;10.80;1.00
7014;DHT22;3547;50.774;12.918;2023-05-14T04:02:20;10.80;1.00
7014;DHT22;3547;50.774;12.918;2023-05-14T04:04:46;10.70;1.00
7014;DHT22;3547;50.774;12.918;2023-05-14T04:07:12;10.70;1.00
7014;DHT22;3547;50.774;12.918;2023-05-14T04:09:38;10.70;1.00
7014;DHT22;3547;50.774;12.918;2023-05-14T04:12:05;10.70;1.00
7014;DHT22;3547;50.774;12.918;2023-05-14T04:14:31;10.70;1.00
7014;DHT22;3547;50.774;12.918;2023-05-14T04:16:57;10.70;1.00
7014;DHT22;3547;50.774;12.918;2023-05-14T04:19:23;10.60;1.00
7014;DHT22;3547;50.774;12.918;2023-05-14T04:21:49;10.70;1.00
7014;DHT22;3547;50.774;12.918;2023-05-14T04:24:16;10.60;1.00
7014;DHT22;3547;50.774;12.918;2023-05-14T04:26:42;10.70;1.00
7014;DHT22;3547;50.774;12.918;2023-05-14T04:29:08;10.60;1.00
7014;DHT22;3547;50.774;12.918;2023-05-14T04:31:34;10.60;1.00
7014;DHT22;3547;50.774;12.918;2023-05-14T04:34:00;10.60;1.00
7014;DHT22;3547;50.774;12.918;2023-05-14T04:36:27;10.60;1.00
7014;DHT22;3547;50.774;12.918;2023-05-14T04:38:53;10.70;1.00
7014;DHT22;3547;50.774;12.918;2023-05-14T04:41:19;10.60;1.00
7014;DHT22;3547;50.774;12.918;2023-05-14T04:43:48;10.60;1.00
7014;DHT22;3547;50.774;12.918;2023-05-14T04:46:14;10.60;1.00
7014;DHT22;3547;50.774;12.918;2023-05-14T04:48:41;10.60;1.00
7014;DHT22;3547;50.774;12.918;2023-05-14T04:51:07;10.60;1.00
7014;DHT22;3547;50.774;12.918;2023-05-14T04:53:33;10.70;1.00
7014;DHT22;3547;50.774;12.918;2023-05-14T04:55:59;10.70;1.00
7014;DHT22;3547;50.774;12.918;2023-05-14T04:58:25;10.70;1.00
7014;DHT22;3547;50.774;12.918;2023-05-14T05:00:53;10.70;1.00
7014;DHT22;3547;50.774;12.918;2023-05-14T05:03:20;10.70;1.00
7014;DHT22;3547;50.774;12.918;2023-05-14T05:05:46;10.80;1.00
7014;DHT22;3547;50.774;12.918;2023-05-14T05:08:12;10.80;1.00
7014;DHT22;3547;50.774;12.918;2023-05-14T05:10:38;10.90;1.00
7014;DHT22;3547;50.774;12.918;2023-05-14T05:13:04;11.00;1.00
7014;DHT22;3547;50.774;12.918;2023-05-14T05:15:30;11.00;1.00
7014;DHT22;3547;50.774;12.918;2023-05-14T05:17:57;11.00;1.00
7014;DHT22;3547;50.774;12.918;2023-05-14T05:20:23;11.10;1.00
7014;DHT22;3547;50.774;12.918;2023-05-14T05:22:49;11.10;1.00
7014;DHT22;3547;50.774;12.918;2023-05-14T05:25:16;11.10;1.00
7014;DHT22;3547;50.774;12.918;2023-05-14T05:27:42;11.20;1.00
7014;DHT22;3547;50.774;12.918;2023-05-14T05:30:09;11.30;1.00
7014;DHT22;3547;50.774;12.918;2023-05-14T05:32:35;11.30;1.00
7014;DHT22;3547;50.774;12.918;2023-05-14T05:35:02;11.40;1.00
7014;DHT22;3547;50.774;12.918;2023-05-14T05:37:29;11.50;1.00
7014;DHT22;3547;50.774;12.918;2023-05-14T05:39:55;11.50;1.00
7014;DHT22;3547;50.774;12.918;2023-05-14T05:42:21;11.60;1.00
7014;DHT22;3547;50.774;12.918;2023-05-14T05:44:47;11.60;1.00
7014;DHT22;3547;50.774;12.918;2023-05-14T05:47:14;11.70;1.00
7014;DHT22;3547;50.774;12.918;2023-05-14T05:49:40;11.80;1.00
7014;DHT22;3547;50.774;12.918;2023-05-14T05:52:06;11.90;1.00
7014;DHT22;3547;50.774;12.918;2023-05-14T05:54:33;12.00;1.00
7014;DHT22;3547;50.774;12.918;2023-05-14T05:56:59;12.10;1.00
7014;DHT22;3547;50.774;12.918;2023-05-14T05:59:25;12.20;1.00
7014;DHT22;3547;50.774;12.918;2023-05-14T06:01:52;12.30;1.00
7014;DHT22;3547;50.774;12.918;2023-05-14T06:04:18;12.30;1.00
7014;DHT22;3547;50.774;12.918;2023-05-14T06:06:45;12.40;1.00
7014;DHT22;3547;50.774;12.918;2023-05-14T06:09:11;12.40;1.00
7014;DHT22;3547;50.774;12.918;2023-05-14T06:11:38;12.50;1.00
7014;DHT22;3547;50.774;12.918;2023-05-14T06:14:04;12.60;1.00
7014;DHT22;3547;50.774;12.918;2023-05-14T06:16:30;12.70;1.00
7014;DHT22;3547;50.774;12.918;2023-05-14T06:18:56;12.80;1.00
7014;DHT22;3547;50.774;12.918;2023-05-14T06:21:22;12.80;1.00
7014;DHT22;3547;50.774;12.918;2023-05-14T06:23:49;12.90;1.00
7014;DHT22;3547;50.774;12.918;2023-05-14T06:26:15;13.00;1.00
7014;DHT22;3547;50.774;12.918;2023-05-14T06:28:41;13.10;1.00
7014;DHT22;3547;50.774;12.918;2023-05-14T06:31:07;13.20;1.00
7014;DHT22;3547;50.774;12.918;2023-05-14T06:33:33;13.20;1.00
7014;DHT22;3547;50.774;12.918;2023-05-14T06:36:02;13.30;1.00
7014;DHT22;3547;50.774;12.918;2023-05-14T06:38:28;13.40;1.00
7014;DHT22;3547;50.774;12.918;2023-05-14T06:40:55;13.40;1.00
7014;DHT22;3547;50.774;12.918;2023-05-14T06:43:21;13.50;1.00
7014;DHT22;3547;50.774;12.918;2023-05-14T06:45:48;13.60;1.00
7014;DHT22;3547;50.774;12.918;2023-05-14T06:48:21;13.70;1.00
7014;DHT22;3547;50.774;12.918;2023-05-14T06:50:47;13.80;1.00
7014;DHT22;3547;50.774;12.918;2023-05-14T06:53:14;13.80;1.00
7014;DHT22;3547;50.774;12.918;2023-05-14T06:55:41;13.90;1.00
7014;DHT22;3547;50.774;12.918;2023-05-14T06:58:08;13.90;1.00
7014;DHT22;3547;50.774;12.918;2023-05-14T07:00:34;14.00;1.00
7014;DHT22;3547;50.774;12.918;2023-05-14T07:03:00;14.00;1.00
7014;DHT22;3547;50.774;12.918;2023-05-14T07:05:27;14.10;1.00
7014;DHT22;3547;50.774;12.918;2023-05-14T07:07:53;14.20;1.00
7014;DHT22;3547;50.774;12.918;2023-05-14T07:10:19;14.20;1.00
7014;DHT22;3547;50.774;12.918;2023-05-14T07:12:46;14.30;1.00
7014;DHT22;3547;50.774;12.918;2023-05-14T07:15:12;14.40;1.00
7014;DHT22;3547;50.774;12.918;2023-05-14T07:17:38;14.50;1.00
7014;DHT22;3547;50.774;12.918;2023-05-14T07:20:05;14.50;1.00
7014;DHT22;3547;50.774;12.918;2023-05-14T07:22:32;14.60;1.00
7014;DHT22;3547;50.774;12.918;2023-05-14T07:24:58;14.60;1.00
7014;DHT22;3547;50.774;12.918;2023-05-14T07:27:24;14.80;1.00
7014;DHT22;3547;50.774;12.918;2023-05-14T07:29:50;14.80;1.00
7014;DHT22;3547;50.774;12.918;2023-05-14T07:32:17;14.90;1.00
7014;DHT22;3547;50.774;12.918;2023-05-14T07:34:45;14.90;1.00
7014;DHT22;3547;50.774;12.918;2023-05-14T07:37:12;15.00;1.00
7014;DHT22;3547;50.774;12.918;2023-05-14T07:39:38;15.10;1.00
7014;DHT22;3547;50.774;12.918;2023-05-14T07:42:06;15.20;1.00
7014;DHT22;3547;50.774;12.918;2023-05-14T07:44:33;15.20;1.00
7014;DHT22;3547;50.774;12.918;2023-05-14T07:46:59;15.30;1.00
7014;DHT22;3547;50.774;12.918;2023-05-14T07:49:25;15.30;1.00
7014;DHT22;3547;50.774;12.918;2023-05-14T07:51:52;15.40;1.00
7014;DHT22;3547;50.774;12.918;2023-05-14T07:54:18;15.50;1.00
7014;DHT22;3547;50.774;12.918;2023-05-14T07:56:44;15.60;1.00
7014;DHT22;3547;50.774;12.918;2023-05-14T07:59:10;15.70;1.00
7014;DHT22;3547;50.774;12.918;2023-05-14T08:01:36;15.70;1.00
7014;DHT22;3547;50.774;12.918;2023-05-14T08:04:02;15.70;1.00
7014;DHT22;3547;50.774;12.918;2023-05-14T08:06:28;15.80;1.00
7014;DHT22;3547;50.774;12.918;2023-05-14T08:08:55;15.90;1.00
7014;DHT22;3547;50.774;12.918;2023-05-14T08:11:21;16.00;1.00
7014;DHT22;3547;50.774;12.918;2023-05-14T08:13:47;16.10;1.00
7014;DHT22;3547;50.774;12.918;2023-05-14T08:16:13;16.20;1.00
7014;DHT22;3547;50.774;12.918;2023-05-14T08:18:40;16.30;1.00
7014;DHT22;3547;50.774;12.918;2023-05-14T08:21:06;16.30;1.00
7014;DHT22;3547;50.774;12.918;2023-05-14T08:23:33;16.40;1.00
7014;DHT22;3547;50.774;12.918;2023-05-14T08:25:59;16.50;1.00
7014;DHT22;3547;50.774;12.918;2023-05-14T08:28:26;16.70;1.00
7014;DHT22;3547;50.774;12.918;2023-05-14T08:30:52;16.80;1.00
7014;DHT22;3547;50.774;12.918;2023-05-14T08:33:18;16.80;1.00
7014;DHT22;3547;50.774;12.918;2023-05-14T08:35:44;16.90;1.00
7014;DHT22;3547;50.774;12.918;2023-05-14T08:38:10;17.00;1.00
7014;DHT22;3547;50.774;12.918;2023-05-14T08:40:37;17.10;1.00
7014;DHT22;3547;50.774;12.918;2023-05-14T08:43:03;17.20;1.00
7014;DHT22;3547;50.774;12.918;2023-05-14T08:45:30;17.20;1.00
7014;DHT22;3547;50.774;12.918;2023-05-14T08:47:59;17.20;1.00
7014;DHT22;3547;50.774;12.918;2023-05-14T08:50:30;17.30;1.00
7014;DHT22;3547;50.774;12.918;2023-05-14T08:52:56;17.40;1.00
7014;DHT22;3547;50.774;12.918;2023-05-14T08:55:22;17.50;1.00
7014;DHT22;3547;50.774;12.918;2023-05-14T08:57:49;17.70;1.00
7014;DHT22;3547;50.774;12.918;2023-05-14T09:00:15;17.90;1.00
7014;DHT22;3547;50.774;12.918;2023-05-14T09:02:43;17.90;1.00
7014;DHT22;3547;50.774;12.918;2023-05-14T09:05:09;17.90;1.00
7014;DHT22;3547;50.774;12.918;2023-05-14T09:07:35;18.10;1.00
7014;DHT22;3547;50.774;12.918;2023-05-14T09:10:02;18.20;1.00
7014;DHT22;3547;50.774;12.918;2023-05-14T09:12:28;18.30;1.00
7014;DHT22;3547;50.774;12.918;2023-05-14T09:14:55;18.40;1.00
7014;DHT22;3547;50.774;12.918;2023-05-14T09:17:24;18.60;1.00
7014;DHT22;3547;50.774;12.918;2023-05-14T09:19:51;18.90;1.00
7014;DHT22;3547;50.774;12.918;2023-05-14T09:22:18;18.90;1.00
7014;DHT22;3547;50.774;12.918;2023-05-14T09:24:45;18.90;1.00
7014;DHT22;3547;50.774;12.918;2023-05-14T09:27:17;19.00;1.00
7014;DHT22;3547;50.774;12.918;2023-05-14T09:29:47;19.10;1.00
7014;DHT22;3547;50.774;12.918;2023-05-14T09:32:13;19.10;1.00
7014;DHT22;3547;50.774;12.918;2023-05-14T09:34:39;19.00;1.00
7014;DHT22;3547;50.774;12.918;2023-05-14T09:37:07;19.00;1.00
7014;DHT22;3547;50.774;12.918;2023-05-14T09:39:35;19.20;1.00
7014;DHT22;3547;50.774;12.918;2023-05-14T09:42:02;19.50;1.00
7014;DHT22;3547;50.774;12.918;2023-05-14T09:44:28;19.50;1.00
7014;DHT22;3547;50.774;12.918;2023-05-14T09:46:55;19.50;1.00
7014;DHT22;3547;50.774;12.918;2023-05-14T09:49:21;19.60;1.00
7014;DHT22;3547;50.774;12.918;2023-05-14T09:51:48;19.60;1.00
7014;DHT22;3547;50.774;12.918;2023-05-14T09:54:15;19.60;1.00
7014;DHT22;3547;50.774;12.918;2023-05-14T09:56:42;19.80;1.00
7014;DHT22;3547;50.774;12.918;2023-05-14T09:59:09;19.60;1.00
7014;DHT22;3547;50.774;12.918;2023-05-14T10:01:37;19.50;1.00
7014;DHT22;3547;50.774;12.918;2023-05-14T10:04:05;19.80;1.00
7014;DHT22;3547;50.774;12.918;2023-05-14T10:06:36;19.90;1.00
7014;DHT22;3547;50.774;12.918;2023-05-14T10:09:04;19.70;1.00
7014;DHT22;3547;50.774;12.918;2023-05-14T10:11:37;19.50;1.00
7014;DHT22;3547;50.774;12.918;2023-05-14T10:14:17;19.70;1.00
7014;DHT22;3547;50.774;12.918;2023-05-14T10:16:52;20.00;1.00
7014;DHT22;3547;50.774;12.918;2023-05-14T10:19:23;20.10;1.00
7014;DHT22;3547;50.774;12.918;2023-05-14T10:21:55;20.10;1.00
7014;DHT22;3547;50.774;12.918;2023-05-14T10:24:23;20.20;1.00
7014;DHT22;3547;50.774;12.918;2023-05-14T10:26:50;20.40;1.00
7014;DHT22;3547;50.774;12.918;2023-05-14T10:29:17;20.50;1.00
7014;DHT22;3547;50.774;12.918;2023-05-14T10:31:53;20.40;1.00
7014;DHT22;3547;50.774;12.918;2023-05-14T10:34:40;20.20;1.00
7014;DHT22;3547;50.774;12.918;2023-05-14T10:37:22;19.90;1.00
7014;DHT22;3547;50.774;12.918;2023-05-14T10:39:53;19.70;1.00
7014;DHT22;3547;50.774;12.918;2023-05-14T10:45:07;19.60;1.00
7014;DHT22;3547;50.774;12.918;2023-05-14T10:47:44;19.60;1.00
7014;DHT22;3547;50.774;12.918;2023-05-14T10:50:16;19.60;1.00
7014;DHT22;3547;50.774;12.918;2023-05-14T10:52:43;19.70;1.00
7014;DHT22;3547;50.774;12.918;2023-05-14T10:55:15;19.70;1.00
7014;DHT22;3547;50.774;12.918;2023-05-14T10:57:43;19.80;1.00
7014;DHT22;3547;50.774;12.918;2023-05-14T11:00:11;19.90;1.00
7014;DHT22;3547;50.774;12.918;2023-05-14T11:02:39;19.90;1.00
7014;DHT22;3547;50.774;12.918;2023-05-14T11:05:08;20.00;1.00
7014;DHT22;3547;50.774;12.918;2023-05-14T11:07:40;19.30;1.00
7014;DHT22;3547;50.774;12.918;2023-05-14T11:10:07;19.50;1.00
7014;DHT22;3547;50.774;12.918;2023-05-14T11:12:35;20.00;1.00
7014;DHT22;3547;50.774;12.918;2023-05-14T11:15:04;20.00;1.00
7014;DHT22;3547;50.774;12.918;2023-05-14T11:17:31;20.20;1.00
7014;DHT22;3547;50.774;12.918;2023-05-14T11:19:58;20.30;1.00
7014;DHT22;3547;50.774;12.918;2023-05-14T11:22:25;20.70;1.00
7014;DHT22;3547;50.774;12.918;2023-05-14T11:24:51;21.10;1.00
7014;DHT22;3547;50.774;12.918;2023-05-14T11:27:19;21.10;1.00
7014;DHT22;3547;50.774;12.918;2023-05-14T11:29:49;21.20;1.00
7014;DHT22;3547;50.774;12.918;2023-05-14T11:32:16;21.00;1.00
7014;DHT22;3547;50.774;12.918;2023-05-14T11:34:43;20.80;1.00
7014;DHT22;3547;50.774;12.918;2023-05-14T11:37:12;20.80;1.00
7014;DHT22;3547;50.774;12.918;2023-05-14T11:39:45;20.70;1.00
7014;DHT22;3547;50.774;12.918;2023-05-14T11:42:15;20.40;1.00
7014;DHT22;3547;50.774;12.918;2023-05-14T11:44:49;20.30;1.00
7014;DHT22;3547;50.774;12.918;2023-05-14T11:47:23;20.30;1.00
7014;DHT22;3547;50.774;12.918;2023-05-14T11:50:00;20.20;1.00
7014;DHT22;3547;50.774;12.918;2023-05-14T11:52:26;20.20;1.00
7014;DHT22;3547;50.774;12.918;2023-05-14T11:54:53;20.20;1.00
7014;DHT22;3547;50.774;12.918;2023-05-14T11:57:20;20.30;1.00
7014;DHT22;3547;50.774;12.918;2023-05-14T11:59:54;20.50;1.00
7014;DHT22;3547;50.774;12.918;2023-05-14T12:02:26;20.60;1.00
7014;DHT22;3547;50.774;12.918;2023-05-14T12:04:55;20.60;1.00
7014;DHT22;3547;50.774;12.918;2023-05-14T12:07:22;20.70;1.00
7014;DHT22;3547;50.774;12.918;2023-05-14T12:09:48;20.80;1.00
7014;DHT22;3547;50.774;12.918;2023-05-14T12:12:24;20.80;1.00
7014;DHT22;3547;50.774;12.918;2023-05-14T12:14:50;20.80;1.00
7014;DHT22;3547;50.774;12.918;2023-05-14T12:17:22;20.80;1.00
7014;DHT22;3547;50.774;12.918;2023-05-14T12:19:50;20.90;1.00
7014;DHT22;3547;50.774;12.918;2023-05-14T12:22:21;21.00;1.00
7014;DHT22;3547;50.774;12.918;2023-05-14T12:24:57;20.90;1.00
7014;DHT22;3547;50.774;12.918;2023-05-14T12:27:28;21.00;1.00
7014;DHT22;3547;50.774;12.918;2023-05-14T12:30:02;20.80;1.00
7014;DHT22;3547;50.774;12.918;2023-05-14T12:32:33;20.80;1.00
7014;DHT22;3547;50.774;12.918;2023-05-14T12:34:59;20.80;1.00
7014;DHT22;3547;50.774;12.918;2023-05-14T12:37:28;20.80;1.00
7014;DHT22;3547;50.774;12.918;2023-05-14T12:39:54;21.00;1.00
7014;DHT22;3547;50.774;12.918;2023-05-14T12:42:20;21.10;1.00
7014;DHT22;3547;50.774;12.918;2023-05-14T12:44:47;21.00;1.00
7014;DHT22;3547;50.774;12.918;2023-05-14T12:47:13;21.00;1.00
7014;DHT22;3547;50.774;12.918;2023-05-14T12:49:40;20.80;1.00
7014;DHT22;3547;50.774;12.918;2023-05-14T12:52:06;20.70;1.00
7014;DHT22;3547;50.774;12.918;2023-05-14T12:54:32;20.50;1.00
7014;DHT22;3547;50.774;12.918;2023-05-14T12:56:58;20.30;1.00
7014;DHT22;3547;50.774;12.918;2023-05-14T12:59:24;20.30;1.00
7014;DHT22;3547;50.774;12.918;2023-05-14T13:01:50;20.10;1.00
7014;DHT22;3547;50.774;12.918;2023-05-14T13:04:16;19.90;1.00
7014;DHT22;3547;50.774;12.918;2023-05-14T13:06:43;19.70;1.00
7014;DHT22;3547;50.774;12.918;2023-05-14T13:09:09;19.70;1.00
7014;DHT22;3547;50.774;12.918;2023-05-14T13:11:35;19.50;1.00
7014;DHT22;3547;50.774;12.918;2023-05-14T13:14:01;19.50;1.00
7014;DHT22;3547;50.774;12.918;2023-05-14T13:16:31;19.40;1.00
7014;DHT22;3547;50.774;12.918;2023-05-14T13:18:57;19.20;1.00
7014;DHT22;3547;50.774;12.918;2023-05-14T13:21:23;19.20;1.00
7014;DHT22;3547;50.774;12.918;2023-05-14T13:23:50;19.10;1.00
7014;DHT22;3547;50.774;12.918;2023-05-14T13:26:16;19.10;1.00
7014;DHT22;3547;50.774;12.918;2023-05-14T13:28:43;19.00;1.00
7014;DHT22;3547;50.774;12.918;2023-05-14T13:31:11;18.90;1.00
7014;DHT22;3547;50.774;12.918;2023-05-14T13:37:00;18.80;1.00
7014;DHT22;3547;50.774;12.918;2023-05-14T13:39:26;18.80;1.00
7014;DHT22;3547;50.774;12.918;2023-05-14T13:41:56;18.70;1.00
7014;DHT22;3547;50.774;12.918;2023-05-14T13:44:22;18.60;1.00
7014;DHT22;3547;50.774;12.918;2023-05-14T13:46:48;18.60;1.00
7014;DHT22;3547;50.774;12.918;2023-05-14T13:49:14;18.60;1.00
7014;DHT22;3547;50.774;12.918;2023-05-14T13:51:41;18.60;1.00
7014;DHT22;3547;50.774;12.918;2023-05-14T13:54:07;18.60;1.00
7014;DHT22;3547;50.774;12.918;2023-05-14T13:56:33;18.60;1.00
7014;DHT22;3547;50.774;12.918;2023-05-14T13:59:02;18.60;1.00
7014;DHT22;3547;50.774;12.918;2023-05-14T14:01:29;18.60;1.00
7014;DHT22;3547;50.774;12.918;2023-05-14T14:03:56;18.70;1.00
7014;DHT22;3547;50.774;12.918;2023-05-14T14:06:24;18.80;1.00
7014;DHT22;3547;50.774;12.918;2023-05-14T14:08:50;18.90;1.00
7014;DHT22;3547;50.774;12.918;2023-05-14T14:11:16;19.10;1.00
7014;DHT22;3547;50.774;12.918;2023-05-14T14:13:46;19.40;1.00
7014;DHT22;3547;50.774;12.918;2023-05-14T14:16:12;19.60;1.00
7014;DHT22;3547;50.774;12.918;2023-05-14T14:18:38;19.80;1.00
7014;DHT22;3547;50.774;12.918;2023-05-14T14:21:05;19.90;1.00
7014;DHT22;3547;50.774;12.918;2023-05-14T14:23:31;20.10;1.00
7014;DHT22;3547;50.774;12.918;2023-05-14T14:25:57;20.20;1.00
7014;DHT22;3547;50.774;12.918;2023-05-14T14:28:23;20.30;1.00
7014;DHT22;3547;50.774;12.918;2023-05-14T14:30:50;20.50;1.00
7014;DHT22;3547;50.774;12.918;2023-05-14T14:33:16;20.60;1.00
7014;DHT22;3547;50.774;12.918;2023-05-14T14:35:42;20.70;1.00
7014;DHT22;3547;50.774;12.918;2023-05-14T14:38:08;20.80;1.00
7014;DHT22;3547;50.774;12.918;2023-05-14T14:40:34;20.90;1.00
7014;DHT22;3547;50.774;12.918;2023-05-14T14:43:01;20.80;1.00
7014;DHT22;3547;50.774;12.918;2023-05-14T14:45:27;20.80;1.00
7014;DHT22;3547;50.774;12.918;2023-05-14T14:48:23;20.60;1.00
7014;DHT22;3547;50.774;12.918;2023-05-14T14:50:50;20.20;1.00
7014;DHT22;3547;50.774;12.918;2023-05-14T14:53:20;19.90;1.00
7014;DHT22;3547;50.774;12.918;2023-05-14T14:55:48;19.60;1.00
7014;DHT22;3547;50.774;12.918;2023-05-14T14:58:14;19.40;1.00
7014;DHT22;3547;50.774;12.918;2023-05-14T15:00:43;19.10;1.00
7014;DHT22;3547;50.774;12.918;2023-05-14T15:03:10;19.00;1.00
7014;DHT22;3547;50.774;12.918;2023-05-14T15:05:37;18.70;1.00
7014;DHT22;3547;50.774;12.918;2023-05-14T15:08:03;18.50;1.00
7014;DHT22;3547;50.774;12.918;2023-05-14T15:10:36;18.40;1.00
7014;DHT22;3547;50.774;12.918;2023-05-14T15:13:04;18.30;1.00
7014;DHT22;3547;50.774;12.918;2023-05-14T15:15:34;18.10;1.00
7014;DHT22;3547;50.774;12.918;2023-05-14T15:18:01;18.10;1.00
7014;DHT22;3547;50.774;12.918;2023-05-14T15:20:32;17.90;1.00
7014;DHT22;3547;50.774;12.918;2023-05-14T15:23:31;17.80;1.00
7014;DHT22;3547;50.774;12.918;2023-05-14T15:29:22;17.60;1.00
7014;DHT22;3547;50.774;12.918;2023-05-14T15:31:49;17.50;1.00
7014;DHT22;3547;50.774;12.918;2023-05-14T15:34:15;17.50;1.00
7014;DHT22;3547;50.774;12.918;2023-05-14T15:36:42;17.40;1.00
7014;DHT22;3547;50.774;12.918;2023-05-14T15:39:08;17.40;1.00
7014;DHT22;3547;50.774;12.918;2023-05-14T15:41:35;17.30;1.00
7014;DHT22;3547;50.774;12.918;2023-05-14T15:47:53;17.10;1.00
7014;DHT22;3547;50.774;12.918;2023-05-14T15:50:20;17.00;1.00
7014;DHT22;3547;50.774;12.918;2023-05-14T15:52:47;16.90;1.00
7014;DHT22;3547;50.774;12.918;2023-05-14T15:55:13;17.00;1.00
7014;DHT22;3547;50.774;12.918;2023-05-14T15:57:43;16.90;1.00
7014;DHT22;3547;50.774;12.918;2023-05-14T16:00:30;16.90;1.00
7014;DHT22;3547;50.774;12.918;2023-05-14T16:03:00;16.90;1.00
7014;DHT22;3547;50.774;12.918;2023-05-14T16:05:31;16.80;1.00
7014;DHT22;3547;50.774;12.918;2023-05-14T16:08:01;16.70;1.00
7014;DHT22;3547;50.774;12.918;2023-05-14T16:10:27;16.20;1.00
7014;DHT22;3547;50.774;12.918;2023-05-14T16:12:53;15.70;1.00
7014;DHT22;3547;50.774;12.918;2023-05-14T16:15:19;15.30;1.00
7014;DHT22;3547;50.774;12.918;2023-05-14T16:17:46;15.10;1.00
7014;DHT22;3547;50.774;12.918;2023-05-14T16:20:13;14.80;1.00
7014;DHT22;3547;50.774;12.918;2023-05-14T16:22:40;14.80;1.00
7014;DHT22;3547;50.774;12.918;2023-05-14T16:28:15;14.90;1.00
7014;DHT22;3547;50.774;12.918;2023-05-14T16:30:45;14.90;1.00
7014;DHT22;3547;50.774;12.918;2023-05-14T16:45:54;14.80;1.00
7014;DHT22;3547;50.774;12.918;2023-05-14T16:48:20;14.90;1.00
7014;DHT22;3547;50.774;12.918;2023-05-14T16:50:49;14.80;1.00
7014;DHT22;3547;50.774;12.918;2023-05-14T16:53:15;14.60;1.00
7014;DHT22;3547;50.774;12.918;2023-05-14T16:55:42;14.50;1.00